Burnham-on-Sea, United Kingdom
Current Conditions -  °F | °C
As of 4:20 PM on Wednesday 22 Oct 2014 (Local Time) from EGGD Reporting Station
Rain Showers Rain Showers  
Wind Chill: 52°   Ceiling: 2800
Heat Index: 52°   Visibility: 6mi
Dew Point: 48°   Wind: 16mph
Humidity: 88%   Direction: 260°W
Pressure: 30.27"   Gusts: NA
Location:  51.23°N, 3°W
Report Text: EGGD 221520Z 26014KT 9999 VCSH SCT017 BKN028 11/09 Q1025
Loading
Personal Weather Stations






























Interactive Weather Map
Tropical Storm Tracking
New forecast layout! Learn more

10-Day Weather Forecast

Advertisements
Track Severe Weather on mobile